createdAt,value
2023-01-29T00:02:11.676Z,9.45
2023-01-29T00:04:38.553Z,8.50
2023-01-29T00:07:05.428Z,8.30
2023-01-29T00:09:32.459Z,10.13
2023-01-29T00:11:59.444Z,9.90
2023-01-29T00:14:27.708Z,8.90
2023-01-29T00:16:54.916Z,8.88
2023-01-29T00:19:21.769Z,8.82
2023-01-29T00:21:48.633Z,8.67
2023-01-29T00:24:15.516Z,10.45
2023-01-29T00:26:43.396Z,9.48
2023-01-29T00:29:10.462Z,9.35
2023-01-29T00:31:37.476Z,9.35
2023-01-29T00:34:04.419Z,9.03
2023-01-29T00:36:31.412Z,9.60
2023-01-29T00:38:59.835Z,10.13
2023-01-29T00:41:50.664Z,9.55
2023-01-29T00:44:37.196Z,9.13
2023-01-29T00:47:04.782Z,9.07
2023-01-29T00:49:31.583Z,8.23
2023-01-29T00:52:17.446Z,9.45
2023-01-29T00:54:44.221Z,9.18
2023-01-29T00:57:11.277Z,9.93
2023-01-29T00:59:38.265Z,8.87
2023-01-29T01:02:23.726Z,9.60
2023-01-29T01:04:50.665Z,9.40
2023-01-29T01:07:17.535Z,10.15
2023-01-29T01:10:02.793Z,9.38
2023-01-29T01:12:29.873Z,9.23
2023-01-29T01:14:56.813Z,9.50
2023-01-29T01:17:24.190Z,9.65
2023-01-29T01:19:51.035Z,9.30
2023-01-29T01:22:17.931Z,8.88
2023-01-29T01:24:44.906Z,8.87
2023-01-29T01:27:12.583Z,9.23
2023-01-29T01:29:39.543Z,9.13
2023-01-29T01:32:06.806Z,8.18
2023-01-29T01:34:33.906Z,9.15
2023-01-29T01:37:00.827Z,8.83
2023-01-29T01:39:27.917Z,9.32
2023-01-29T01:41:55.300Z,8.63
2023-01-29T01:45:13.368Z,9.00
2023-01-29T01:48:13.216Z,8.10
2023-01-29T01:51:06.695Z,8.97
2023-01-29T01:53:38.719Z,8.30
2023-01-29T01:56:09.724Z,8.65
2023-01-29T01:58:44.341Z,8.25
2023-01-29T02:01:12.916Z,8.52
2023-01-29T02:04:08.810Z,9.03
2023-01-29T02:06:58.827Z,8.85
2023-01-29T02:09:38.016Z,8.25
2023-01-29T02:12:12.558Z,8.02
2023-01-29T02:14:41.710Z,8.57
2023-01-29T02:17:14.822Z,8.70
2023-01-29T02:20:06.034Z,7.75
2023-01-29T02:22:38.692Z,9.43
2023-01-29T02:25:27.448Z,8.52
2023-01-29T02:28:22.192Z,9.10
2023-01-29T02:31:00.295Z,8.80
2023-01-29T02:33:33.165Z,9.10
2023-01-29T02:36:33.021Z,8.60
2023-01-29T02:39:24.811Z,8.80
2023-01-29T02:42:02.594Z,8.43
2023-01-29T02:44:40.842Z,8.27
2023-01-29T02:47:23.180Z,8.93
2023-01-29T02:50:26.587Z,9.25
2023-01-29T02:53:14.037Z,9.02
2023-01-29T02:56:00.365Z,7.85
2023-01-29T02:59:08.390Z,9.57
2023-01-29T03:01:51.866Z,8.90
2023-01-29T03:04:27.927Z,9.02
2023-01-29T03:07:03.269Z,9.30
2023-01-29T03:09:50.632Z,9.13
2023-01-29T03:12:34.164Z,9.47
2023-01-29T03:15:11.787Z,9.50
2023-01-29T03:17:57.563Z,9.85
2023-01-29T03:20:32.289Z,9.20
2023-01-29T03:23:06.702Z,9.50
2023-01-29T03:25:54.998Z,10.37
2023-01-29T03:28:41.026Z,10.23
2023-01-29T03:31:31.016Z,9.52
2023-01-29T03:34:24.734Z,9.60
2023-01-29T03:36:57.937Z,9.75
2023-01-29T03:39:29.905Z,9.97
2023-01-29T03:42:12.221Z,9.82
2023-01-29T03:44:47.526Z,10.00
2023-01-29T03:47:34.702Z,9.75
2023-01-29T03:50:12.976Z,9.88
2023-01-29T03:52:49.351Z,10.57
2023-01-29T03:55:27.998Z,10.45
2023-01-29T03:57:55.024Z,9.77
2023-01-29T04:00:35.190Z,10.10
2023-01-29T04:03:13.920Z,10.35
2023-01-29T04:05:48.001Z,9.77
2023-01-29T04:08:23.373Z,10.35
2023-01-29T04:10:53.164Z,10.80
2023-01-29T04:13:20.550Z,10.52
2023-01-29T04:15:59.730Z,9.02
2023-01-29T04:18:26.985Z,10.47
2023-01-29T04:20:54.167Z,11.52
2023-01-29T04:23:26.996Z,10.18
2023-01-29T04:26:24.587Z,10.98
2023-01-29T04:29:24.583Z,11.38
2023-01-29T04:32:07.820Z,10.30
2023-01-29T04:35:12.457Z,11.05
2023-01-29T04:38:10.652Z,9.75
2023-01-29T04:40:48.866Z,11.07
2023-01-29T04:43:36.554Z,10.43
2023-01-29T04:46:32.073Z,10.20
2023-01-29T04:49:12.575Z,10.15
2023-01-29T04:51:50.376Z,10.60
2023-01-29T04:54:36.494Z,10.68
2023-01-29T04:57:10.583Z,10.30
2023-01-29T04:59:51.172Z,11.63
2023-01-29T05:02:21.371Z,10.30
2023-01-29T05:04:50.271Z,11.10
2023-01-29T05:07:19.026Z,11.43
2023-01-29T05:09:47.215Z,10.73
2023-01-29T05:12:17.690Z,11.27
2023-01-29T05:14:46.090Z,10.70
2023-01-29T05:17:18.847Z,11.35
2023-01-29T05:19:46.887Z,10.85
2023-01-29T05:22:17.334Z,11.30
2023-01-29T05:24:44.940Z,11.27
2023-01-29T05:27:44.662Z,12.20
2023-01-29T05:30:11.967Z,10.88
2023-01-29T05:32:39.920Z,12.07
2023-01-29T05:35:07.222Z,12.43
2023-01-29T05:37:34.002Z,11.47
2023-01-29T05:40:00.781Z,11.73
2023-01-29T05:42:27.629Z,11.02
2023-01-29T05:44:54.469Z,11.68
2023-01-29T05:47:21.974Z,11.18
2023-01-29T05:49:48.842Z,10.13
2023-01-29T05:52:15.688Z,11.65
2023-01-29T05:54:42.501Z,12.18
2023-01-29T05:57:09.385Z,11.93
2023-01-29T05:59:36.184Z,11.65
2023-01-29T06:02:03.132Z,11.03
2023-01-29T06:04:30.018Z,11.13
2023-01-29T06:06:56.998Z,12.27
2023-01-29T06:09:23.877Z,11.07
2023-01-29T06:11:50.824Z,11.48
2023-01-29T06:14:17.686Z,11.73
2023-01-29T06:16:44.515Z,10.90
2023-01-29T06:19:11.299Z,11.27
2023-01-29T06:21:38.120Z,11.20
2023-01-29T06:24:05.252Z,11.77
2023-01-29T06:26:32.195Z,11.07
2023-01-29T06:28:59.083Z,11.07
2023-01-29T06:31:37.759Z,11.00
2023-01-29T06:34:07.806Z,10.70
2023-01-29T06:36:34.753Z,10.88
2023-01-29T06:39:01.595Z,11.40
2023-01-29T06:41:28.847Z,11.48
2023-01-29T06:43:55.792Z,11.38
2023-01-29T06:46:22.658Z,10.13
2023-01-29T06:48:49.541Z,11.07
2023-01-29T06:51:16.369Z,10.63
2023-01-29T06:53:45.791Z,10.85
2023-01-29T06:56:13.131Z,10.93
2023-01-29T06:58:40.056Z,11.50
2023-01-29T07:01:09.358Z,11.13
2023-01-29T07:03:36.810Z,10.77
2023-01-29T07:06:04.816Z,10.77
2023-01-29T07:08:31.798Z,11.07
2023-01-29T07:11:00.599Z,10.27
2023-01-29T07:13:27.619Z,10.20
2023-01-29T07:15:55.265Z,9.83
2023-01-29T07:18:22.308Z,10.27
2023-01-29T07:20:49.268Z,10.43
2023-01-29T07:23:16.758Z,10.40
2023-01-29T07:25:43.979Z,10.50
2023-01-29T07:28:10.851Z,10.47
2023-01-29T07:30:37.790Z,11.18
2023-01-29T07:33:07.599Z,10.25
2023-01-29T07:35:43.450Z,10.07
2023-01-29T07:38:11.298Z,10.68
2023-01-29T07:40:38.389Z,10.83
2023-01-29T07:43:07.382Z,10.75
2023-01-29T07:45:36.872Z,9.80
2023-01-29T07:48:05.285Z,10.23
2023-01-29T07:50:34.386Z,10.95
2023-01-29T07:53:02.187Z,12.17
2023-01-29T07:55:29.179Z,11.02
2023-01-29T07:57:57.051Z,10.85
2023-01-29T08:00:24.111Z,11.10
2023-01-29T08:02:51.066Z,9.68
2023-01-29T08:05:17.962Z,10.90
2023-01-29T08:07:49.257Z,11.07
2023-01-29T08:10:22.165Z,10.35
2023-01-29T08:13:00.507Z,9.68
2023-01-29T08:15:28.185Z,10.43
2023-01-29T08:17:57.956Z,10.07
2023-01-29T08:20:25.870Z,10.02
2023-01-29T08:23:04.675Z,9.77
2023-01-29T08:25:32.466Z,9.77
2023-01-29T08:28:02.427Z,10.02
2023-01-29T08:30:32.185Z,10.30
2023-01-29T08:32:59.028Z,10.52
2023-01-29T08:35:26.427Z,10.10
2023-01-29T08:37:54.654Z,10.25
2023-01-29T08:40:21.947Z,10.65
2023-01-29T08:42:48.865Z,9.80
2023-01-29T08:45:15.906Z,9.93
2023-01-29T08:47:49.994Z,10.75
2023-01-29T08:50:18.418Z,10.27
2023-01-29T08:52:46.340Z,10.85
2023-01-29T08:55:13.916Z,10.33
2023-01-29T08:57:41.209Z,10.65
2023-01-29T09:00:12.181Z,10.90
2023-01-29T09:02:39.059Z,10.23
2023-01-29T09:05:06.492Z,10.90
2023-01-29T09:07:33.693Z,10.27
2023-01-29T09:10:00.619Z,10.20
2023-01-29T09:12:27.418Z,10.32
2023-01-29T09:14:54.432Z,10.18
2023-01-29T09:17:21.611Z,10.68
2023-01-29T09:19:48.409Z,10.00
2023-01-29T09:22:15.437Z,9.32
2023-01-29T09:24:42.355Z,9.75
2023-01-29T09:27:10.215Z,9.40
2023-01-29T09:29:37.327Z,9.93
2023-01-29T09:32:05.986Z,9.47
2023-01-29T09:34:34.452Z,9.88
2023-01-29T09:37:01.485Z,10.45
2023-01-29T09:39:28.470Z,8.85
2023-01-29T09:42:16.287Z,9.40
2023-01-29T09:44:52.094Z,10.03
2023-01-29T09:47:20.451Z,9.38
2023-01-29T09:49:50.801Z,10.68
2023-01-29T09:52:26.464Z,10.32
2023-01-29T09:54:56.386Z,10.68
2023-01-29T09:57:29.493Z,9.87
2023-01-29T09:59:56.483Z,10.80
2023-01-29T10:02:36.287Z,10.38
2023-01-29T10:05:35.319Z,10.38
2023-01-29T10:08:18.007Z,9.85
2023-01-29T10:10:49.757Z,9.80
2023-01-29T10:13:28.709Z,10.63
2023-01-29T10:16:23.564Z,9.57
2023-01-29T10:19:16.746Z,9.90
2023-01-29T10:21:49.529Z,9.65
2023-01-29T10:24:35.056Z,10.37
2023-01-29T10:27:12.475Z,10.88
2023-01-29T10:29:42.144Z,9.77
2023-01-29T10:32:16.070Z,10.35
2023-01-29T10:34:49.537Z,9.68
2023-01-29T10:37:19.738Z,10.53
2023-01-29T10:39:46.798Z,10.75
2023-01-29T10:42:38.594Z,10.45
2023-01-29T10:45:30.492Z,10.60
2023-01-29T10:47:57.403Z,10.38
2023-01-29T10:50:52.623Z,10.03
2023-01-29T10:53:31.566Z,10.23
2023-01-29T10:56:05.822Z,10.75
2023-01-29T10:59:16.447Z,10.93
2023-01-29T11:01:43.413Z,10.35
2023-01-29T11:04:13.229Z,11.07
2023-01-29T11:06:40.323Z,11.00
2023-01-29T11:12:15.040Z,11.52
2023-01-29T11:14:55.776Z,11.85
2023-01-29T11:17:25.969Z,10.50
2023-01-29T11:19:57.073Z,11.00
2023-01-29T11:22:26.611Z,12.18
2023-01-29T11:25:20.108Z,11.35
2023-01-29T11:27:58.554Z,10.73
2023-01-29T11:30:40.048Z,12.40
2023-01-29T11:33:08.381Z,12.05
2023-01-29T11:35:36.804Z,13.57
2023-01-29T11:38:10.057Z,11.93
2023-01-29T11:40:40.056Z,12.35
2023-01-29T11:43:23.869Z,12.17
2023-01-29T11:45:54.153Z,12.15
2023-01-29T11:48:23.379Z,12.10
2023-01-29T11:50:58.370Z,12.75
2023-01-29T11:53:42.295Z,12.38
2023-01-29T11:56:49.015Z,12.37
2023-01-29T11:59:48.719Z,12.48
2023-01-29T12:02:26.915Z,12.95
2023-01-29T12:05:00.414Z,12.40
2023-01-29T12:07:28.884Z,12.38
2023-01-29T12:10:01.175Z,12.40
2023-01-29T12:12:35.468Z,12.52
2023-01-29T12:15:18.131Z,12.98
2023-01-29T12:18:04.882Z,13.15
2023-01-29T12:21:07.230Z,12.57
2023-01-29T12:23:58.379Z,13.27
2023-01-29T12:27:15.067Z,11.90
2023-01-29T12:29:57.175Z,12.45
2023-01-29T12:32:48.576Z,12.65
2023-01-29T12:35:46.153Z,12.15
2023-01-29T12:38:22.051Z,13.47
2023-01-29T12:41:23.947Z,12.73
2023-01-29T12:44:01.688Z,13.25
2023-01-29T12:46:34.277Z,13.32
2023-01-29T12:49:07.714Z,13.00
2023-01-29T12:51:45.215Z,12.47
2023-01-29T12:54:22.440Z,14.80
2023-01-29T12:56:53.750Z,13.98
2023-01-29T12:59:43.415Z,12.43
2023-01-29T13:02:26.115Z,12.90
2023-01-29T13:05:19.179Z,12.57
2023-01-29T13:07:50.440Z,13.40
2023-01-29T13:10:24.092Z,13.27
2023-01-29T13:13:14.048Z,12.80
2023-01-29T13:15:44.385Z,13.38
2023-01-29T13:18:33.593Z,13.40
2023-01-29T13:21:01.856Z,13.25
2023-01-29T13:23:35.820Z,13.95
2023-01-29T13:26:03.908Z,12.65
2023-01-29T13:28:31.121Z,13.57
2023-01-29T13:31:13.552Z,13.47
2023-01-29T13:33:43.689Z,14.35
2023-01-29T13:36:30.107Z,13.77
2023-01-29T13:39:09.209Z,12.77
2023-01-29T13:41:40.265Z,13.55
2023-01-29T13:44:21.712Z,12.80
2023-01-29T13:46:56.664Z,12.75
2023-01-29T13:49:44.233Z,12.98
2023-01-29T13:52:31.859Z,13.48
2023-01-29T13:55:06.223Z,12.48
2023-01-29T13:57:43.919Z,13.27
2023-01-29T14:00:24.572Z,12.05
2023-01-29T14:03:00.504Z,13.23
2023-01-29T14:05:30.325Z,12.85
2023-01-29T14:08:06.873Z,12.45
2023-01-29T14:10:35.200Z,13.10
2023-01-29T14:13:04.935Z,12.20
2023-01-29T14:15:34.874Z,12.70
2023-01-29T14:18:21.355Z,12.20
2023-01-29T14:20:48.267Z,11.73
2023-01-29T14:23:34.140Z,12.10
2023-01-29T14:26:04.494Z,11.50
2023-01-29T14:28:34.339Z,12.68
2023-01-29T14:31:01.971Z,11.55
2023-01-29T14:33:36.401Z,12.35
2023-01-29T14:36:23.975Z,11.63
2023-01-29T14:38:53.857Z,11.57
2023-01-29T14:41:31.619Z,12.57
2023-01-29T14:44:35.785Z,11.80
2023-01-29T14:47:02.759Z,11.20
2023-01-29T14:49:52.585Z,11.30
2023-01-29T14:52:23.552Z,11.52
2023-01-29T14:54:51.656Z,11.82
2023-01-29T14:57:19.547Z,11.98
2023-01-29T15:00:00.897Z,12.10
2023-01-29T15:02:59.830Z,11.93
2023-01-29T15:05:37.672Z,12.38
2023-01-29T15:08:36.032Z,12.25
2023-01-29T15:11:32.584Z,11.18
2023-01-29T15:14:24.261Z,12.35
2023-01-29T15:17:06.398Z,11.07
2023-01-29T15:19:40.387Z,11.32
2023-01-29T15:22:18.784Z,11.13
2023-01-29T15:24:47.529Z,12.00
2023-01-29T15:27:20.124Z,12.18
2023-01-29T15:30:08.357Z,11.47
2023-01-29T15:32:40.595Z,11.30
2023-01-29T15:35:20.430Z,11.35
2023-01-29T15:38:05.533Z,11.80
2023-01-29T15:40:34.499Z,11.85
2023-01-29T15:43:01.520Z,11.47
2023-01-29T15:45:31.408Z,12.25
2023-01-29T15:48:08.709Z,12.55
2023-01-29T15:50:39.660Z,11.80
2023-01-29T15:53:13.778Z,11.48
2023-01-29T15:55:41.202Z,10.67
2023-01-29T15:58:16.471Z,10.77
2023-01-29T16:00:51.680Z,11.43
2023-01-29T16:03:24.871Z,11.02
2023-01-29T16:05:53.122Z,11.05
2023-01-29T16:08:22.192Z,11.80
2023-01-29T16:10:55.450Z,10.52
2023-01-29T16:13:29.726Z,11.27
2023-01-29T16:16:06.037Z,10.40
2023-01-29T16:18:41.085Z,10.98
2023-01-29T16:21:23.047Z,11.50
2023-01-29T16:23:53.034Z,11.02
2023-01-29T16:26:35.970Z,10.35
2023-01-29T16:29:08.510Z,11.13
2023-01-29T16:31:37.473Z,10.52
2023-01-29T16:34:18.421Z,10.97
2023-01-29T16:36:50.066Z,9.60
2023-01-29T16:39:23.407Z,10.55
2023-01-29T16:42:09.891Z,10.85
2023-01-29T16:44:39.379Z,10.88
2023-01-29T16:47:14.955Z,10.97
2023-01-29T16:49:50.079Z,11.57
2023-01-29T16:52:29.639Z,11.43
2023-01-29T16:55:23.309Z,10.63
2023-01-29T16:57:55.808Z,10.95
2023-01-29T17:00:29.071Z,12.50
2023-01-29T17:03:07.082Z,11.48
2023-01-29T17:05:37.252Z,12.20
2023-01-29T17:08:05.986Z,11.43
2023-01-29T17:10:33.921Z,12.00
2023-01-29T17:13:07.467Z,11.63
2023-01-29T17:15:43.336Z,12.43
2023-01-29T17:18:18.532Z,11.65
2023-01-29T17:20:45.686Z,11.98
2023-01-29T17:23:12.612Z,12.75
2023-01-29T17:25:39.926Z,12.67
2023-01-29T17:28:07.365Z,13.25
2023-01-29T17:30:37.432Z,12.23
2023-01-29T17:33:18.731Z,12.98
2023-01-29T17:35:46.018Z,12.68
2023-01-29T17:38:25.050Z,13.13
2023-01-29T17:41:00.485Z,12.80
2023-01-29T17:43:27.558Z,12.60
2023-01-29T17:45:54.680Z,12.32
2023-01-29T17:48:26.937Z,12.60
2023-01-29T17:50:57.173Z,11.87
2023-01-29T17:53:43.296Z,12.27
2023-01-29T17:56:21.867Z,12.25
2023-01-29T17:58:48.802Z,13.48
2023-01-29T18:01:18.784Z,12.70
2023-01-29T18:03:45.763Z,13.93
2023-01-29T18:06:35.949Z,12.80
2023-01-29T18:09:06.337Z,12.88
2023-01-29T18:11:34.662Z,12.23
2023-01-29T18:14:10.880Z,12.85
2023-01-29T18:16:43.739Z,13.00
2023-01-29T18:19:24.057Z,11.98
2023-01-29T18:21:51.346Z,12.27
2023-01-29T18:24:18.950Z,13.02
2023-01-29T18:26:45.886Z,12.55
2023-01-29T18:29:13.271Z,12.00
2023-01-29T18:31:45.737Z,13.50
2023-01-29T18:34:12.934Z,12.07
2023-01-29T18:36:47.198Z,12.30
2023-01-29T18:39:15.653Z,13.48
2023-01-29T18:41:42.784Z,13.00
2023-01-29T18:44:11.322Z,12.55
2023-01-29T18:46:38.167Z,12.52
2023-01-29T18:49:05.501Z,12.52
2023-01-29T18:51:32.550Z,13.23
2023-01-29T18:54:02.185Z,11.37
2023-01-29T18:56:29.133Z,12.75
2023-01-29T18:58:56.468Z,12.88
2023-01-29T19:01:23.990Z,11.90
2023-01-29T19:03:51.109Z,12.93
2023-01-29T19:06:18.002Z,12.80
2023-01-29T19:08:45.125Z,12.18
2023-01-29T19:11:12.780Z,12.73
2023-01-29T19:13:40.626Z,12.73
2023-01-29T19:16:12.260Z,11.82
2023-01-29T19:18:40.024Z,12.67
2023-01-29T19:21:12.877Z,12.48
2023-01-29T19:23:55.049Z,12.82
2023-01-29T19:26:22.088Z,13.10
2023-01-29T19:28:49.023Z,12.35
2023-01-29T19:31:15.905Z,12.53
2023-01-29T19:33:42.658Z,12.70
2023-01-29T19:36:10.023Z,12.50
2023-01-29T19:38:38.814Z,12.48
2023-01-29T19:41:06.187Z,12.52
2023-01-29T19:43:33.245Z,12.67
2023-01-29T19:46:01.587Z,11.98
2023-01-29T19:48:28.808Z,12.55
2023-01-29T19:50:58.511Z,13.15
2023-01-29T19:53:27.249Z,13.05
2023-01-29T19:56:06.538Z,13.57
2023-01-29T19:58:34.352Z,12.55
2023-01-29T20:01:24.993Z,12.32
2023-01-29T20:03:52.161Z,11.88
2023-01-29T20:06:23.493Z,13.95
2023-01-29T20:08:50.496Z,12.03
2023-01-29T20:11:20.007Z,13.45
2023-01-29T20:13:48.762Z,12.60
2023-01-29T20:16:17.522Z,12.15
2023-01-29T20:18:44.890Z,13.07
2023-01-29T20:21:14.564Z,12.73
2023-01-29T20:23:41.655Z,12.30
2023-01-29T20:26:12.001Z,13.35
2023-01-29T20:28:39.465Z,12.77
2023-01-29T20:31:07.814Z,12.13
2023-01-29T20:33:38.770Z,12.83
2023-01-29T20:36:08.490Z,13.55
2023-01-29T20:38:35.498Z,13.57
2023-01-29T20:41:17.077Z,13.00
2023-01-29T20:43:45.274Z,13.55
2023-01-29T20:46:13.468Z,13.37
2023-01-29T20:48:42.199Z,13.52
2023-01-29T20:51:15.763Z,13.82
2023-01-29T20:53:45.989Z,13.13
2023-01-29T20:56:13.938Z,12.77
2023-01-29T20:58:43.738Z,13.03
2023-01-29T21:01:12.275Z,13.20
2023-01-29T21:03:39.916Z,14.38
2023-01-29T21:06:08.804Z,13.13
2023-01-29T21:08:36.790Z,13.35
2023-01-29T21:11:05.207Z,14.27
2023-01-29T21:13:32.104Z,12.95
2023-01-29T21:15:59.537Z,13.70
2023-01-29T21:18:26.576Z,13.13
2023-01-29T21:20:56.688Z,13.10
2023-01-29T21:23:26.715Z,14.00
2023-01-29T21:26:00.762Z,12.50
2023-01-29T21:28:31.015Z,13.40
2023-01-29T21:31:29.735Z,14.40
2023-01-29T21:34:04.885Z,13.63
2023-01-29T21:36:55.393Z,13.60
2023-01-29T21:39:34.699Z,14.02
2023-01-29T21:42:32.770Z,12.68
2023-01-29T21:44:59.696Z,12.45
2023-01-29T21:47:26.532Z,13.25
2023-01-29T21:49:55.108Z,13.00
2023-01-29T21:52:24.891Z,14.07
2023-01-29T21:55:23.951Z,13.35
2023-01-29T21:57:51.204Z,12.70
2023-01-29T22:00:30.992Z,13.07
2023-01-29T22:03:09.481Z,13.30
2023-01-29T22:05:36.551Z,13.18
2023-01-29T22:08:06.664Z,13.45
2023-01-29T22:13:39.189Z,13.75
2023-01-29T22:16:09.948Z,12.87
2023-01-29T22:18:40.065Z,13.63
2023-01-29T22:21:07.039Z,13.70
2023-01-29T22:23:33.793Z,13.70
2023-01-29T22:26:09.073Z,13.13
2023-01-29T22:28:36.087Z,13.90
2023-01-29T22:31:04.485Z,13.50
2023-01-29T22:33:31.956Z,13.35
2023-01-29T22:35:58.848Z,13.93
2023-01-29T22:38:26.094Z,12.98
2023-01-29T22:40:54.577Z,14.00
2023-01-29T22:43:22.216Z,13.73
2023-01-29T22:45:49.149Z,13.30
2023-01-29T22:48:16.079Z,13.50
2023-01-29T22:50:43.227Z,13.55
2023-01-29T22:53:10.162Z,13.07
2023-01-29T22:55:37.126Z,13.25
2023-01-29T22:58:04.021Z,14.57
2023-01-29T23:00:30.866Z,14.52
2023-01-29T23:02:57.755Z,13.27
2023-01-29T23:05:24.648Z,12.87
2023-01-29T23:07:51.478Z,12.75
2023-01-29T23:10:18.730Z,14.50
2023-01-29T23:12:45.677Z,14.20
2023-01-29T23:15:12.550Z,13.20
2023-01-29T23:17:39.921Z,11.67
2023-01-29T23:20:07.482Z,12.48
2023-01-29T23:22:34.631Z,14.80
2023-01-29T23:25:02.906Z,12.95
2023-01-29T23:27:29.866Z,12.57
2023-01-29T23:29:56.754Z,12.90
2023-01-29T23:32:23.655Z,12.40
2023-01-29T23:34:50.469Z,12.85
2023-01-29T23:37:17.342Z,13.00
2023-01-29T23:39:44.291Z,12.82
2023-01-29T23:42:11.208Z,12.23
2023-01-29T23:44:38.101Z,11.88
2023-01-29T23:47:04.979Z,12.35
2023-01-29T23:49:32.087Z,12.30
2023-01-29T23:51:58.935Z,12.65
2023-01-29T23:54:25.809Z,13.23
2023-01-29T23:56:52.789Z,12.57
2023-01-29T23:59:19.741Z,11.88
